Time;durP1;ratioP1;P1;durP2;ratioP2;P2;SDS_P1;SDS_P2;PMS_P1;PMS_P2;Temp;Humidity;BMP_temperature;BMP_pressure;BME280_temperature;BME280_humidity;BME280_pressure;Samples;Min_cycle;Max_cycle;Signal;HPM_P1;HPM_P2
2022/01/07 00:03:00;;;;;;;17.13;6.53;;;;;;;;;;6154043;23;20205;-90
2022/01/07 00:06:06;;;;;;;19.93;7.40;;;;;;;;;;6153359;23;20161;-89
2022/01/07 00:09:11;;;;;;;14.13;6.20;;;;;;;;;;6152337;23;20612;-90
2022/01/07 00:12:21;;;;;;;15.00;6.63;;;;;;;;;;6155514;23;20172;-90
2022/01/07 00:15:26;;;;;;;15.83;7.23;;;;;;;;;;6153359;23;20508;-91
2022/01/07 00:18:34;;;;;;;14.57;7.50;;;;;;;;;;6155604;23;20169;-90
2022/01/07 00:21:39;;;;;;;15.43;6.80;;;;;;;;;;6152515;23;20165;-89
2022/01/07 00:24:44;;;;;;;15.43;6.83;;;;;;;;;;6151953;23;20350;-90
2022/01/07 00:27:49;;;;;;;17.20;7.07;;;;;;;;;;6153381;23;20173;-91
2022/01/07 00:30:55;;;;;;;18.20;7.03;;;;;;;;;;6150876;23;20188;-91
2022/01/07 00:34:02;;;;;;;17.67;7.27;;;;;;;;;;6153803;23;20153;-90
2022/01/07 00:37:07;;;;;;;15.43;6.93;;;;;;;;;;6153679;23;20172;-90
2022/01/07 00:40:14;;;;;;;16.53;7.03;;;;;;;;;;6152417;23;20196;-91
2022/01/07 00:43:19;;;;;;;13.37;6.30;;;;;;;;;;6152875;23;20222;-90
2022/01/07 00:46:24;;;;;;;18.23;7.37;;;;;;;;;;6170845;23;20195;-89
2022/01/07 00:49:31;;;;;;;22.10;8.00;;;;;;;;;;6184159;23;20225;-90
2022/01/07 00:52:36;;;;;;;20.37;8.30;;;;;;;;;;6183375;23;20284;-90
2022/01/07 00:55:41;;;;;;;19.87;8.57;;;;;;;;;;6180803;23;20318;-89
2022/01/07 00:58:46;;;;;;;20.83;7.60;;;;;;;;;;6181745;23;20166;-89
2022/01/07 01:01:51;;;;;;;19.83;7.63;;;;;;;;;;6180290;23;20180;-92
2022/01/07 01:04:58;;;;;;;17.03;7.67;;;;;;;;;;6180629;23;20195;-90
2022/01/07 01:08:03;;;;;;;20.23;8.53;;;;;;;;;;6180465;23;20168;-90
2022/01/07 01:11:08;;;;;;;19.37;8.13;;;;;;;;;;6180997;23;20604;-90
2022/01/07 01:14:14;;;;;;;18.07;8.03;;;;;;;;;;6179478;23;20163;-91
2022/01/07 01:17:19;;;;;;;22.10;8.50;;;;;;;;;;6182509;23;20172;-90
2022/01/07 01:20:25;;;;;;;18.97;8.13;;;;;;;;;;6182040;23;20216;-90
2022/01/07 01:23:30;;;;;;;22.23;9.33;;;;;;;;;;6181587;23;20227;-91
2022/01/07 01:26:35;;;;;;;18.90;7.73;;;;;;;;;;6181227;23;20164;-90
2022/01/07 01:29:40;;;;;;;19.00;8.77;;;;;;;;;;6181669;23;20171;-93
2022/01/07 01:32:46;;;;;;;18.27;7.70;;;;;;;;;;6180494;23;20212;-90
2022/01/07 01:35:53;;;;;;;16.80;7.60;;;;;;;;;;6182991;23;20615;-92
2022/01/07 01:38:59;;;;;;;22.70;8.30;;;;;;;;;;6183866;23;20297;-91
2022/01/07 01:42:04;;;;;;;17.50;7.97;;;;;;;;;;6184140;23;20160;-90
2022/01/07 01:45:10;;;;;;;16.17;7.83;;;;;;;;;;6183287;23;20324;-90
2022/01/07 01:48:15;;;;;;;18.60;7.57;;;;;;;;;;6184115;23;20237;-91
2022/01/07 01:51:22;;;;;;;20.23;8.10;;;;;;;;;;6184940;23;20168;-90
2022/01/07 01:54:27;;;;;;;16.63;7.13;;;;;;;;;;6182560;23;20155;-92
2022/01/07 01:57:32;;;;;;;17.37;7.47;;;;;;;;;;6186312;23;20619;-90
2022/01/07 02:00:38;;;;;;;18.00;8.40;;;;;;;;;;6186065;23;20168;-91
2022/01/07 02:03:43;;;;;;;19.40;8.07;;;;;;;;;;6186392;23;20216;-91
2022/01/07 02:06:49;;;;;;;18.30;7.77;;;;;;;;;;6186685;23;20165;-91
2022/01/07 02:09:55;;;;;;;21.83;8.67;;;;;;;;;;6186710;23;20164;-91
2022/01/07 02:13:00;;;;;;;18.20;7.67;;;;;;;;;;6186054;23;20155;-91
2022/01/07 02:16:05;;;;;;;18.97;8.27;;;;;;;;;;6184123;23;20628;-90
2022/01/07 02:19:10;;;;;;;20.87;8.53;;;;;;;;;;6185668;23;20210;-92
2022/01/07 02:22:18;;;;;;;22.07;8.70;;;;;;;;;;6185222;23;20160;-92
2022/01/07 02:25:23;;;;;;;22.57;8.07;;;;;;;;;;6182993;23;20269;-90
2022/01/07 02:28:30;;;;;;;20.43;7.67;;;;;;;;;;6185041;23;20172;-92
2022/01/07 02:31:35;;;;;;;21.40;8.10;;;;;;;;;;6185670;23;20204;-91
2022/01/07 02:34:41;;;;;;;19.27;7.80;;;;;;;;;;6185474;23;20168;-90
2022/01/07 02:37:48;;;;;;;21.33;8.00;;;;;;;;;;6186316;23;20168;-90
2022/01/07 02:40:53;;;;;;;20.80;7.80;;;;;;;;;;6184966;23;20163;-91
2022/01/07 02:43:58;;;;;;;18.20;7.97;;;;;;;;;;6184936;23;20155;-90
2022/01/07 02:47:03;;;;;;;18.73;8.30;;;;;;;;;;6171350;23;20244;-90
2022/01/07 02:50:09;;;;;;;20.07;7.53;;;;;;;;;;6174426;23;20152;-90
2022/01/07 02:53:15;;;;;;;18.27;7.60;;;;;;;;;;6173573;23;20177;-90
2022/01/07 02:56:21;;;;;;;21.33;7.73;;;;;;;;;;6173761;23;20215;-91
2022/01/07 02:59:26;;;;;;;22.20;8.17;;;;;;;;;;6172117;23;20225;-91
2022/01/07 03:02:31;;;;;;;20.73;7.87;;;;;;;;;;6171487;23;20172;-90
2022/01/07 03:05:39;;;;;;;15.73;7.50;;;;;;;;;;6172505;23;20261;-93
2022/01/07 03:08:47;;;;;;;17.93;7.07;;;;;;;;;;6171390;23;20165;-90
2022/01/07 03:11:52;;;;;;;27.20;8.47;;;;;;;;;;6170676;23;20280;-91
2022/01/07 03:14:57;;;;;;;20.70;6.83;;;;;;;;;;6174520;23;20176;-90
2022/01/07 03:18:03;;;;;;;21.23;8.10;;;;;;;;;;6170493;23;20189;-92
2022/01/07 03:21:08;;;;;;;18.53;7.23;;;;;;;;;;6171554;23;20159;-89
2022/01/07 03:24:14;;;;;;;17.40;7.07;;;;;;;;;;6169560;23;20189;-91
2022/01/07 03:27:19;;;;;;;17.30;7.03;;;;;;;;;;6168813;23;20168;-91
2022/01/07 03:30:24;;;;;;;15.93;6.60;;;;;;;;;;6167794;23;20168;-90
2022/01/07 03:33:29;;;;;;;16.10;7.37;;;;;;;;;;6168825;23;20501;-90
2022/01/07 03:36:34;;;;;;;13.30;6.83;;;;;;;;;;6169494;23;20208;-90
2022/01/07 03:39:40;;;;;;;14.53;7.00;;;;;;;;;;6170091;23;20174;-91
2022/01/07 03:42:45;;;;;;;18.00;6.67;;;;;;;;;;6170439;23;20165;-90
2022/01/07 03:45:50;;;;;;;16.80;6.67;;;;;;;;;;6181202;23;20211;-90
2022/01/07 03:48:56;;;;;;;17.60;7.07;;;;;;;;;;6184631;23;20175;-90
2022/01/07 03:52:01;;;;;;;14.17;6.27;;;;;;;;;;6182302;23;20172;-90
2022/01/07 03:55:09;;;;;;;15.60;6.37;;;;;;;;;;6181766;23;20171;-90
2022/01/07 03:58:13;;;;;;;15.90;6.33;;;;;;;;;;6183392;23;20171;-90
2022/01/07 04:01:19;;;;;;;15.17;6.73;;;;;;;;;;6182556;23;20487;-90
2022/01/07 04:04:24;;;;;;;18.67;6.43;;;;;;;;;;6182476;23;20489;-89
2022/01/07 04:07:30;;;;;;;11.87;5.90;;;;;;;;;;6181456;23;20252;-90
2022/01/07 04:10:38;;;;;;;17.37;6.20;;;;;;;;;;6181691;23;20243;-91
2022/01/07 04:13:44;;;;;;;12.53;5.73;;;;;;;;;;6182451;23;20512;-89
2022/01/07 04:16:49;;;;;;;15.10;6.87;;;;;;;;;;6184406;23;20622;-90
2022/01/07 04:19:55;;;;;;;15.40;6.00;;;;;;;;;;6185317;23;20163;-90
2022/01/07 04:23:01;;;;;;;14.33;6.40;;;;;;;;;;6185462;23;20152;-91
2022/01/07 04:26:08;;;;;;;15.37;6.80;;;;;;;;;;6184484;23;20195;-90
2022/01/07 04:29:13;;;;;;;16.10;6.83;;;;;;;;;;6186001;23;20254;-90
2022/01/07 04:32:18;;;;;;;16.53;6.50;;;;;;;;;;6186432;23;20256;-90
2022/01/07 04:35:24;;;;;;;21.07;6.70;;;;;;;;;;6184952;23;20172;-90
2022/01/07 04:38:29;;;;;;;22.50;7.63;;;;;;;;;;6183249;23;20291;-89
2022/01/07 04:41:36;;;;;;;18.03;7.60;;;;;;;;;;6183796;23;20172;-90
2022/01/07 04:44:42;;;;;;;14.23;7.00;;;;;;;;;;6183010;23;20183;-89
2022/01/07 04:47:48;;;;;;;17.90;7.47;;;;;;;;;;6181730;23;20152;-91
2022/01/07 04:50:53;;;;;;;17.50;6.47;;;;;;;;;;6183442;23;20217;-89
2022/01/07 04:53:58;;;;;;;14.67;6.43;;;;;;;;;;6182429;23;20164;-90
2022/01/07 04:57:05;;;;;;;19.10;7.77;;;;;;;;;;6183453;23;20172;-90
2022/01/07 05:00:11;;;;;;;19.97;6.87;;;;;;;;;;6185270;23;20171;-90
2022/01/07 05:03:17;;;;;;;18.67;7.13;;;;;;;;;;6182250;23;20322;-91
2022/01/07 05:06:44;;;;;;;17.33;7.07;;;;;;;;;;6183567;23;20219;-90
2022/01/07 05:09:49;;;;;;;19.80;6.97;;;;;;;;;;6185848;23;20172;-91
2022/01/07 05:12:56;;;;;;;16.63;7.07;;;;;;;;;;6185330;23;20179;-91
2022/01/07 05:16:01;;;;;;;18.60;6.77;;;;;;;;;;6184187;23;20164;-90
2022/01/07 05:19:06;;;;;;;15.23;6.70;;;;;;;;;;6185974;23;20221;-90
2022/01/07 05:22:12;;;;;;;15.30;6.30;;;;;;;;;;6185182;23;20191;-91
2022/01/07 05:25:17;;;;;;;19.97;8.00;;;;;;;;;;6185504;23;20194;-90
2022/01/07 05:28:24;;;;;;;21.67;8.13;;;;;;;;;;6185665;23;20195;-89
2022/01/07 05:31:28;;;;;;;27.20;9.60;;;;;;;;;;6185488;23;20247;-90
2022/01/07 05:34:33;;;;;;;25.53;9.20;;;;;;;;;;6183792;23;20607;-90
2022/01/07 05:37:38;;;;;;;18.43;7.80;;;;;;;;;;6183944;23;20168;-90
2022/01/07 05:40:44;;;;;;;20.47;7.27;;;;;;;;;;6183580;23;20172;-90
2022/01/07 05:43:50;;;;;;;22.53;8.93;;;;;;;;;;6184501;23;20511;-90
2022/01/07 05:46:55;;;;;;;23.83;8.83;;;;;;;;;;6173947;23;20232;-90
2022/01/07 05:50:00;;;;;;;26.53;10.47;;;;;;;;;;6171544;23;20180;-90
2022/01/07 05:53:05;;;;;;;24.20;9.87;;;;;;;;;;6172207;23;20152;-91
2022/01/07 05:56:11;;;;;;;23.80;9.50;;;;;;;;;;6170865;23;20184;-90
2022/01/07 05:59:17;;;;;;;23.10;9.20;;;;;;;;;;6171935;23;20173;-90
2022/01/07 06:02:22;;;;;;;27.33;9.47;;;;;;;;;;6172983;23;20229;-89
2022/01/07 06:05:27;;;;;;;26.80;9.30;;;;;;;;;;6172943;23;20232;-91
2022/01/07 06:08:33;;;;;;;26.43;10.40;;;;;;;;;;6171408;23;20173;-90
2022/01/07 06:11:38;;;;;;;26.90;9.87;;;;;;;;;;6171360;23;20220;-91
2022/01/07 06:14:44;;;;;;;24.63;10.33;;;;;;;;;;6172522;23;20169;-90
2022/01/07 06:17:49;;;;;;;33.57;12.07;;;;;;;;;;6171628;23;20176;-90
2022/01/07 06:20:56;;;;;;;33.07;10.87;;;;;;;;;;6170809;23;20242;-90
2022/01/07 06:24:01;;;;;;;28.43;9.97;;;;;;;;;;6172881;23;20168;-91
2022/01/07 06:27:07;;;;;;;32.80;10.93;;;;;;;;;;6170814;23;20200;-90
2022/01/07 06:30:16;;;;;;;30.47;11.20;;;;;;;;;;6170461;23;20172;-92
2022/01/07 06:33:21;;;;;;;30.83;11.60;;;;;;;;;;6171742;23;20168;-89
2022/01/07 06:36:27;;;;;;;44.23;16.57;;;;;;;;;;6170386;23;20616;-89
2022/01/07 06:39:33;;;;;;;26.30;9.80;;;;;;;;;;6171635;23;20168;-90
2022/01/07 06:42:38;;;;;;;29.83;10.40;;;;;;;;;;6172619;23;20172;-91
2022/01/07 06:45:44;;;;;;;26.53;9.50;;;;;;;;;;6181302;23;20603;-90
2022/01/07 06:48:49;;;;;;;28.70;10.57;;;;;;;;;;6184609;23;20511;-90
2022/01/07 06:51:54;;;;;;;30.73;9.73;;;;;;;;;;6185122;23;20219;-89
2022/01/07 06:54:59;;;;;;;24.83;8.43;;;;;;;;;;6184286;23;20187;-89
2022/01/07 06:58:08;;;;;;;21.83;8.67;;;;;;;;;;6184167;23;20152;-90
2022/01/07 07:01:14;;;;;;;21.67;8.10;;;;;;;;;;6183695;23;20152;-91
2022/01/07 07:04:19;;;;;;;25.27;9.10;;;;;;;;;;6183462;23;20156;-90
2022/01/07 07:07:25;;;;;;;23.67;7.87;;;;;;;;;;6182894;23;20300;-90
2022/01/07 07:10:33;;;;;;;23.43;8.77;;;;;;;;;;6184480;23;20685;-89
2022/01/07 07:13:41;;;;;;;24.93;8.20;;;;;;;;;;6183229;23;20172;-89
2022/01/07 07:16:48;;;;;;;30.50;11.57;;;;;;;;;;6185007;23;20223;-90
2022/01/07 07:19:53;;;;;;;27.00;9.50;;;;;;;;;;6184076;23;20221;-89
2022/01/07 07:22:59;;;;;;;19.43;7.83;;;;;;;;;;6183905;23;20168;-90
2022/01/07 07:26:04;;;;;;;23.13;9.40;;;;;;;;;;6183387;23;20290;-90
2022/01/07 07:29:09;;;;;;;21.40;9.17;;;;;;;;;;6181349;23;20291;-89
2022/01/07 07:32:22;;;;;;;23.93;9.57;;;;;;;;;;6182465;23;20180;-90
2022/01/07 07:38:49;;;;;;;24.67;9.37;;;;;;;;;;6183388;23;20454;-92
2022/01/07 07:41:55;;;;;;;21.60;8.73;;;;;;;;;;6184770;23;20236;-89
2022/01/07 07:45:00;;;;;;;19.53;8.70;;;;;;;;;;6183362;23;20168;-89
2022/01/07 07:48:07;;;;;;;21.97;8.80;;;;;;;;;;6185807;23;20163;-90
2022/01/07 07:51:12;;;;;;;25.17;9.30;;;;;;;;;;6185035;23;20167;-89
2022/01/07 07:54:17;;;;;;;22.97;8.50;;;;;;;;;;6187446;23;20172;-89
2022/01/07 07:57:23;;;;;;;22.80;8.27;;;;;;;;;;6185996;23;20179;-90
2022/01/07 08:00:28;;;;;;;26.47;9.67;;;;;;;;;;6185953;23;20159;-90
2022/01/07 08:03:34;;;;;;;32.17;9.30;;;;;;;;;;6185403;23;20492;-90
2022/01/07 08:06:39;;;;;;;25.07;10.10;;;;;;;;;;6183238;23;20203;-90
2022/01/07 08:09:44;;;;;;;26.50;9.93;;;;;;;;;;6182664;23;20168;-90
2022/01/07 08:13:14;;;;;;;23.30;10.37;;;;;;;;;;6183951;23;20163;-90
2022/01/07 08:16:19;;;;;;;24.87;9.17;;;;;;;;;;6183608;23;20233;-90
2022/01/07 08:19:25;;;;;;;18.00;8.40;;;;;;;;;;6184045;23;20604;-89
2022/01/07 08:22:31;;;;;;;22.57;8.70;;;;;;;;;;6183009;23;20168;-88
2022/01/07 08:25:36;;;;;;;24.10;8.43;;;;;;;;;;6182029;23;20196;-90
2022/01/07 08:28:46;;;;;;;21.37;8.80;;;;;;;;;;6182108;23;20167;-90
2022/01/07 08:35:15;;;;;;;20.33;8.33;;;;;;;;;;6184787;23;20155;-89
2022/01/07 08:38:21;;;;;;;28.50;11.53;;;;;;;;;;6185624;23;20172;-88
2022/01/07 08:41:28;;;;;;;23.20;7.60;;;;;;;;;;6183616;23;20175;-89
2022/01/07 08:44:33;;;;;;;22.23;8.87;;;;;;;;;;6186289;23;20176;-90
2022/01/07 08:47:38;;;;;;;18.30;8.27;;;;;;;;;;6172804;23;20259;-90
2022/01/07 08:50:45;;;;;;;22.10;8.27;;;;;;;;;;6172797;23;20216;-88
2022/01/07 08:53:51;;;;;;;21.63;9.97;;;;;;;;;;6173360;23;20160;-89
2022/01/07 08:56:56;;;;;;;17.33;8.10;;;;;;;;;;6173832;23;20217;-88
2022/01/07 09:00:02;;;;;;;23.10;9.07;;;;;;;;;;6171976;23;20168;-91
2022/01/07 09:03:07;;;;;;;28.23;11.13;;;;;;;;;;6173632;23;20165;-90
2022/01/07 09:06:17;;;;;;;20.93;9.27;;;;;;;;;;6172528;23;20219;-90
2022/01/07 09:09:22;;;;;;;25.27;9.53;;;;;;;;;;6172128;23;20176;-91
2022/01/07 09:12:27;;;;;;;22.67;8.77;;;;;;;;;;6172497;23;20168;-90
2022/01/07 09:15:33;;;;;;;23.50;9.20;;;;;;;;;;6172172;23;20221;-91
2022/01/07 09:18:39;;;;;;;18.77;8.57;;;;;;;;;;6173661;23;20156;-91
2022/01/07 09:21:45;;;;;;;111.37;20.80;;;;;;;;;;6174896;23;20665;-92
2022/01/07 09:24:51;;;;;;;23.10;9.60;;;;;;;;;;6174466;23;20169;-91
2022/01/07 09:27:56;;;;;;;24.77;10.27;;;;;;;;;;6174577;23;20201;-91
2022/01/07 09:31:01;;;;;;;25.20;10.67;;;;;;;;;;6173364;23;20177;-91
2022/01/07 09:34:06;;;;;;;27.50;9.53;;;;;;;;;;6172638;23;20165;-91
2022/01/07 09:37:13;;;;;;;24.77;10.27;;;;;;;;;;6171686;23;20526;-91
2022/01/07 09:40:19;;;;;;;20.47;8.03;;;;;;;;;;6169441;23;20165;-90
2022/01/07 09:43:25;;;;;;;29.90;10.00;;;;;;;;;;6174344;23;20225;-90
2022/01/07 09:46:30;;;;;;;23.47;9.90;;;;;;;;;;6171983;23;20212;-89
2022/01/07 09:49:36;;;;;;;25.00;9.30;;;;;;;;;;6173094;23;20193;-90
2022/01/07 09:52:42;;;;;;;24.30;10.47;;;;;;;;;;6173704;23;20173;-91
2022/01/07 09:55:48;;;;;;;30.20;12.90;;;;;;;;;;6174466;23;20201;-91
2022/01/07 09:58:53;;;;;;;24.80;10.50;;;;;;;;;;6173138;23;20179;-91
2022/01/07 10:01:59;;;;;;;23.03;9.97;;;;;;;;;;6175325;23;20156;-91
2022/01/07 10:05:18;;;;;;;30.43;10.43;;;;;;;;;;6172320;23;20214;-90
2022/01/07 10:08:25;;;;;;;21.27;8.73;;;;;;;;;;6172956;23;20169;-90
2022/01/07 10:11:30;;;;;;;21.10;9.63;;;;;;;;;;6173622;23;20177;-91
2022/01/07 10:15:06;;;;;;;24.80;9.50;;;;;;;;;;6174263;23;20209;-89
2022/01/07 10:18:12;;;;;;;22.50;9.60;;;;;;;;;;6176796;23;20176;-91
2022/01/07 10:21:18;;;;;;;23.70;9.97;;;;;;;;;;6176962;23;20196;-91
2022/01/07 10:24:25;;;;;;;27.50;9.93;;;;;;;;;;6176329;23;20180;-92
2022/01/07 10:30:56;;;;;;;30.23;11.30;;;;;;;;;;6174723;23;20165;-91
2022/01/07 10:34:05;;;;;;;24.97;10.20;;;;;;;;;;6176749;23;20181;-91
2022/01/07 10:37:13;;;;;;;31.57;10.77;;;;;;;;;;6175727;23;20217;-92
2022/01/07 10:40:25;;;;;;;28.87;11.37;;;;;;;;;;6173406;23;20169;-91
2022/01/07 10:43:32;;;;;;;24.30;10.80;;;;;;;;;;6178382;23;20149;-91
2022/01/07 10:46:38;;;;;;;26.33;11.30;;;;;;;;;;6177194;23;20216;-92
2022/01/07 10:49:43;;;;;;;28.53;11.93;;;;;;;;;;6177197;23;20160;-92
2022/01/07 10:52:48;;;;;;;28.40;10.83;;;;;;;;;;6176126;23;20160;-91
2022/01/07 10:56:03;;;;;;;30.60;11.43;;;;;;;;;;6174532;23;20185;-91
2022/01/07 10:59:08;;;;;;;27.50;9.97;;;;;;;;;;6174725;23;20172;-91
2022/01/07 11:02:13;;;;;;;29.17;10.77;;;;;;;;;;6175750;23;20180;-91
2022/01/07 11:05:19;;;;;;;28.73;11.10;;;;;;;;;;6175622;23;20196;-92
2022/01/07 11:08:24;;;;;;;30.97;11.63;;;;;;;;;;6176406;23;20176;-91
2022/01/07 11:11:33;;;;;;;33.30;11.73;;;;;;;;;;6174972;23;20696;-92
2022/01/07 11:14:40;;;;;;;27.63;10.43;;;;;;;;;;6175511;23;20213;-92
2022/01/07 11:17:45;;;;;;;29.17;12.13;;;;;;;;;;6174140;23;20164;-91
2022/01/07 11:20:50;;;;;;;34.13;12.43;;;;;;;;;;6174402;23;20215;-91
2022/01/07 11:23:56;;;;;;;28.47;10.80;;;;;;;;;;6174562;23;20218;-92
2022/01/07 11:27:04;;;;;;;32.20;12.07;;;;;;;;;;6173963;23;20204;-91
2022/01/07 11:30:13;;;;;;;38.20;12.60;;;;;;;;;;6173256;23;20184;-89
2022/01/07 11:33:21;;;;;;;28.80;10.63;;;;;;;;;;6173663;23;20347;-91
2022/01/07 11:36:37;;;;;;;20.73;8.40;;;;;;;;;;6172915;23;20173;-92
2022/01/07 11:39:42;;;;;;;20.03;7.90;;;;;;;;;;6174059;23;20168;-91
2022/01/07 11:42:49;;;;;;;17.43;6.77;;;;;;;;;;6175613;23;20167;-92
2022/01/07 11:45:55;;;;;;;24.07;8.87;;;;;;;;;;6188019;23;20231;-92
2022/01/07 11:49:01;;;;;;;39.77;11.83;;;;;;;;;;6188127;23;20308;-92
2022/01/07 11:52:25;;;;;;;20.77;7.77;;;;;;;;;;6187161;23;20163;-92
2022/01/07 11:55:35;;;;;;;19.53;7.60;;;;;;;;;;6190137;23;20151;-91
2022/01/07 11:58:44;;;;;;;26.07;8.43;;;;;;;;;;6188829;23;20172;-91
2022/01/07 19:43:19;;;;;;;30.90;11.53;;;;;;;;;;6202281;23;20200;-91
2022/01/07 19:46:24;;;;;;;31.10;11.33;;;;;;;;;;6187177;23;20224;-92
2022/01/07 19:49:33;;;;;;;32.80;11.10;;;;;;;;;;6187186;23;20186;-91
2022/01/07 19:52:38;;;;;;;32.53;11.37;;;;;;;;;;6185201;23;20610;-92
2022/01/07 19:55:43;;;;;;;28.80;10.90;;;;;;;;;;6188603;23;20316;-91
2022/01/07 19:58:49;;;;;;;30.37;11.87;;;;;;;;;;6187819;23;20237;-91
2022/01/07 20:01:55;;;;;;;31.57;11.70;;;;;;;;;;6184937;23;20147;-90
2022/01/07 20:05:00;;;;;;;26.17;10.70;;;;;;;;;;6187071;23;20160;-91
2022/01/07 20:08:06;;;;;;;23.40;10.60;;;;;;;;;;6185688;23;20187;-92
2022/01/07 20:11:12;;;;;;;31.00;10.53;;;;;;;;;;6186195;23;20200;-91
2022/01/07 20:14:32;;;;;;;28.47;10.30;;;;;;;;;;6187300;23;20170;-91
2022/01/07 20:17:38;;;;;;;24.47;10.43;;;;;;;;;;6188473;23;20172;-90
2022/01/07 20:20:43;;;;;;;27.80;11.53;;;;;;;;;;6185193;23;20264;-88
2022/01/07 20:23:51;;;;;;;28.00;11.20;;;;;;;;;;6186257;23;20188;-89
2022/01/07 20:26:59;;;;;;;33.80;11.90;;;;;;;;;;6184845;23;20219;-90
2022/01/07 20:30:10;;;;;;;25.03;10.20;;;;;;;;;;6184924;23;20156;-90
2022/01/07 20:33:15;;;;;;;26.33;9.87;;;;;;;;;;6186078;23;20194;-90
2022/01/07 20:36:29;;;;;;;28.70;11.47;;;;;;;;;;6183423;23;20172;-90
2022/01/07 20:39:36;;;;;;;25.40;10.93;;;;;;;;;;6185419;23;20184;-90
2022/01/07 20:42:43;;;;;;;24.07;10.80;;;;;;;;;;6174763;23;20188;-90
2022/01/07 20:45:50;;;;;;;28.03;11.70;;;;;;;;;;6173174;23;20505;-90
2022/01/07 20:48:56;;;;;;;28.07;11.37;;;;;;;;;;6174475;23;20216;-90
2022/01/07 20:52:06;;;;;;;26.40;10.80;;;;;;;;;;6175400;23;20168;-91
2022/01/07 20:55:38;;;;;;;27.07;10.97;;;;;;;;;;6177036;23;20164;-90
2022/01/07 20:58:44;;;;;;;27.10;9.97;;;;;;;;;;6177378;23;20239;-91
2022/01/07 21:01:54;;;;;;;28.80;11.93;;;;;;;;;;6174406;23;20213;-92
2022/01/07 21:05:00;;;;;;;30.60;11.37;;;;;;;;;;6176482;23;20168;-90
2022/01/07 21:08:07;;;;;;;33.63;11.30;;;;;;;;;;6173999;23;20225;-91
2022/01/07 21:11:12;;;;;;;27.10;11.10;;;;;;;;;;6174234;23;20178;-91
2022/01/07 21:14:23;;;;;;;25.17;10.60;;;;;;;;;;6175266;23;20217;-90
2022/01/07 21:17:30;;;;;;;28.50;11.37;;;;;;;;;;6173843;23;20261;-91
2022/01/07 21:20:35;;;;;;;28.17;11.33;;;;;;;;;;6173992;23;20160;-90
2022/01/07 21:23:46;;;;;;;27.53;11.73;;;;;;;;;;6175095;23;20152;-92
2022/01/07 21:26:52;;;;;;;30.23;11.77;;;;;;;;;;6173991;23;20172;-90
2022/01/07 21:29:58;;;;;;;39.67;14.70;;;;;;;;;;6172393;23;20156;-91
2022/01/07 21:33:09;;;;;;;30.90;12.57;;;;;;;;;;6174014;23;20176;-90
2022/01/07 21:36:15;;;;;;;42.57;15.27;;;;;;;;;;6172065;23;20168;-91
2022/01/07 21:39:20;;;;;;;39.97;15.17;;;;;;;;;;6172599;23;20242;-91
2022/01/07 21:42:26;;;;;;;35.23;13.70;;;;;;;;;;6173515;23;20189;-91
2022/01/07 21:45:31;;;;;;;26.77;11.43;;;;;;;;;;6171981;23;20226;-91
2022/01/07 21:48:38;;;;;;;26.93;10.77;;;;;;;;;;6174110;23;20205;-92
2022/01/07 21:51:44;;;;;;;28.57;11.87;;;;;;;;;;6177073;23;20173;-91
2022/01/07 21:54:49;;;;;;;27.80;11.73;;;;;;;;;;6175452;23;20168;-91
2022/01/07 21:57:54;;;;;;;28.27;12.40;;;;;;;;;;6175516;23;20172;-92
2022/01/07 22:01:03;;;;;;;24.50;11.03;;;;;;;;;;6176335;23;20189;-91
2022/01/07 22:04:13;;;;;;;27.87;11.90;;;;;;;;;;6177500;23;20177;-90
2022/01/07 22:07:18;;;;;;;34.67;13.70;;;;;;;;;;6175550;23;20197;-91
2022/01/07 22:10:27;;;;;;;32.13;13.37;;;;;;;;;;6176571;23;20165;-90
2022/01/07 22:13:33;;;;;;;34.03;12.80;;;;;;;;;;6176385;23;20479;-92
2022/01/07 22:16:39;;;;;;;29.00;12.77;;;;;;;;;;6177031;23;20169;-91
2022/01/07 22:19:46;;;;;;;30.73;12.97;;;;;;;;;;6178263;23;20193;-90
2022/01/07 22:22:55;;;;;;;29.90;13.30;;;;;;;;;;6176002;23;20164;-91
2022/01/07 22:26:01;;;;;;;30.17;13.00;;;;;;;;;;6177782;23;20232;-90
2022/01/07 22:29:07;;;;;;;32.37;13.03;;;;;;;;;;6175994;23;20528;-91
2022/01/07 22:32:12;;;;;;;28.73;12.83;;;;;;;;;;6173676;23;20236;-91
2022/01/07 22:35:22;;;;;;;36.17;14.63;;;;;;;;;;6173108;23;20169;-91
2022/01/07 22:38:26;;;;;;;32.80;14.33;;;;;;;;;;6171865;23;20609;-92
2022/01/07 22:41:32;;;;;;;68.03;25.27;;;;;;;;;;6179040;23;20171;-91
2022/01/07 22:44:37;;;;;;;29.23;13.13;;;;;;;;;;6186734;23;20160;-91
2022/01/07 22:47:42;;;;;;;30.30;13.40;;;;;;;;;;6186866;23;20271;-92
2022/01/07 22:50:48;;;;;;;33.63;13.87;;;;;;;;;;6185790;23;20179;-91
2022/01/07 22:53:54;;;;;;;33.10;13.33;;;;;;;;;;6185890;23;20196;-92
2022/01/07 22:56:59;;;;;;;30.57;13.10;;;;;;;;;;6186015;23;20197;-91
2022/01/07 23:00:05;;;;;;;34.60;14.73;;;;;;;;;;6186849;23;20164;-92
2022/01/07 23:03:15;;;;;;;29.93;12.67;;;;;;;;;;6185674;23;20163;-91
2022/01/07 23:06:22;;;;;;;43.10;16.53;;;;;;;;;;6187915;23;20456;-91
2022/01/07 23:09:27;;;;;;;38.50;15.37;;;;;;;;;;6186270;23;20195;-92
2022/01/07 23:12:34;;;;;;;31.77;14.60;;;;;;;;;;6187141;23;20233;-91
2022/01/07 23:15:39;;;;;;;33.60;13.90;;;;;;;;;;6185756;23;20171;-91
2022/01/07 23:18:45;;;;;;;32.20;14.20;;;;;;;;;;6185097;23;20167;-91
2022/01/07 23:21:51;;;;;;;46.27;16.47;;;;;;;;;;6186290;23;20212;-91
2022/01/07 23:24:57;;;;;;;29.87;12.67;;;;;;;;;;6185357;23;20196;-88
2022/01/07 23:31:23;;;;;;;26.43;11.53;;;;;;;;;;6184271;23;20172;-91
2022/01/07 23:38:05;;;;;;;30.37;12.20;;;;;;;;;;6184085;23;20172;-91
2022/01/07 23:41:10;;;;;;;23.47;9.67;;;;;;;;;;6183694;23;20231;-90
2022/01/07 23:44:16;;;;;;;25.10;10.80;;;;;;;;;;6186498;23;20202;-90
2022/01/07 23:47:21;;;;;;;22.50;10.47;;;;;;;;;;6180580;23;20171;-91
2022/01/07 23:50:27;;;;;;;23.77;11.17;;;;;;;;;;6180325;23;20276;-91
2022/01/07 23:53:33;;;;;;;24.10;11.47;;;;;;;;;;6181335;23;20180;-91
2022/01/07 23:56:38;;;;;;;26.37;11.43;;;;;;;;;;6182345;23;20171;-90
2022/01/07 23:59:44;;;;;;;26.63;11.07;;;;;;;;;;6182946;23;20215;-90
